Time;durP1;ratioP1;P1;durP2;ratioP2;P2;SDS_P1;SDS_P2;PMS_P1;PMS_P2;Temp;Humidity;BMP_temperature;BMP_pressure;BME280_temperature;BME280_humidity;BME280_pressure;Samples;Min_cycle;Max_cycle;Signal;HPM_P1;HPM_P2
2023/05/24 00:02:12;;;;;;;5.00;2.60;;;15.80;98.00;;;;;;5032618;28;20454;-68
2023/05/24 00:04:40;;;;;;;6.50;2.93;;;15.80;98.00;;;;;;5032643;28;20450;-68
2023/05/24 00:07:07;;;;;;;6.30;2.57;;;15.70;98.00;;;;;;5032541;28;20538;-68
2023/05/24 00:09:34;;;;;;;3.63;2.50;;;15.60;98.00;;;;;;5032453;28;20461;-69
2023/05/24 00:12:02;;;;;;;5.53;2.63;;;15.50;98.00;;;;;;5032404;28;20457;-68
2023/05/24 00:14:31;;;;;;;6.97;2.93;;;15.50;98.00;;;;;;5032233;28;20469;-69
2023/05/24 00:16:58;;;;;;;5.50;2.50;;;15.60;98.00;;;;;;5032438;28;20481;-69
2023/05/24 00:19:26;;;;;;;4.43;2.87;;;15.60;98.00;;;;;;5032431;28;20474;-68
2023/05/24 00:21:54;;;;;;;3.33;2.30;;;15.60;98.00;;;;;;5032367;28;20495;-69
2023/05/24 00:24:21;;;;;;;4.40;2.27;;;15.50;98.00;;;;;;5032122;28;20447;-69
2023/05/24 00:26:48;;;;;;;6.87;2.77;;;15.70;98.00;;;;;;5032342;28;20462;-69
2023/05/24 00:29:15;;;;;;;8.17;3.40;;;15.70;98.00;;;;;;5014412;28;20487;-69
2023/05/24 00:31:44;;;;;;;5.03;2.67;;;15.70;98.00;;;;;;5032449;28;20531;-68
2023/05/24 00:34:11;;;;;;;3.70;2.30;;;15.60;98.00;;;;;;5032109;28;20458;-68
2023/05/24 00:36:38;;;;;;;3.73;2.17;;;15.50;98.00;;;;;;5014822;28;20455;-68
2023/05/24 00:39:06;;;;;;;4.47;2.50;;;15.50;98.00;;;;;;5032015;28;20486;-68
2023/05/24 00:41:33;;;;;;;9.27;3.20;;;15.40;98.00;;;;;;5014209;28;20454;-68
2023/05/24 00:44:00;;;;;;;9.53;3.00;;;15.40;98.00;;;;;;5031906;28;20870;-68
2023/05/24 00:46:29;;;;;;;4.53;2.70;;;15.50;98.00;;;;;;5032166;28;20462;-68
2023/05/24 00:48:58;;;;;;;3.30;2.37;;;15.50;98.00;;;;;;5031725;28;20523;-69
2023/05/24 00:51:27;;;;;;;4.40;2.53;;;15.60;98.00;;;;;;5031996;28;20862;-68
2023/05/24 00:53:54;;;;;;;4.40;2.80;;;15.60;98.00;;;;;;5031703;28;21023;-69
2023/05/24 00:56:22;;;;;;;4.60;2.80;;;15.60;98.00;;;;;;5031586;28;20458;-68
2023/05/24 00:58:53;;;;;;;3.80;2.40;;;15.60;98.00;;;;;;5031674;28;21047;-68
2023/05/24 01:01:24;;;;;;;5.67;2.70;;;15.50;98.00;;;;;;5031493;28;20455;-68
2023/05/24 01:03:52;;;;;;;2.80;2.37;;;15.50;98.00;;;;;;5031492;28;20491;-69
2023/05/24 01:06:22;;;;;;;6.37;2.83;;;15.50;98.00;;;;;;5031258;28;20482;-69
2023/05/24 01:09:02;;;;;;;11.40;2.37;;;15.60;98.00;;;;;;5031466;28;20462;-69
2023/05/24 01:11:40;;;;;;;6.97;3.03;;;15.40;98.00;;;;;;5031837;28;20535;-69
2023/05/24 01:14:20;;;;;;;4.63;2.90;;;15.40;98.00;;;;;;5014944;28;20457;-68
2023/05/24 01:16:55;;;;;;;6.63;2.77;;;15.30;98.00;;;;;;5013959;28;20454;-68
2023/05/24 01:19:50;;;;;;;4.00;2.40;;;15.30;98.00;;;;;;5014536;28;20578;-68
2023/05/24 01:22:48;;;;;;;10.20;2.80;;;15.40;98.00;;;;;;5029402;28;20474;-68
2023/05/24 01:25:26;;;;;;;3.47;2.30;;;15.20;98.00;;;;;;5031398;28;20461;-68
2023/05/24 01:27:56;;;;;;;3.90;2.63;;;15.00;98.00;;;;;;5031350;28;20465;-68
2023/05/24 01:30:24;;;;;;;6.00;3.10;;;14.80;98.00;;;;;;5031189;28;20953;-68
2023/05/24 01:32:51;;;;;;;4.77;2.90;;;14.80;98.00;;;;;;5031311;28;20454;-68
2023/05/24 01:35:19;;;;;;;3.30;2.40;;;14.80;98.00;;;;;;5031374;28;20454;-68
2023/05/24 01:37:46;;;;;;;6.10;2.80;;;14.70;98.00;;;;;;5031391;28;20808;-68
2023/05/24 01:40:13;;;;;;;4.30;2.60;;;14.60;98.00;;;;;;5031276;28;20490;-69
2023/05/24 01:42:46;;;;;;;7.33;2.80;;;14.80;98.00;;;;;;5031129;28;20489;-68
2023/05/24 01:45:21;;;;;;;4.70;2.70;;;14.80;98.00;;;;;;5013789;28;20466;-68
2023/05/24 01:48:00;;;;;;;4.53;2.30;;;14.70;98.00;;;;;;5031163;28;20469;-68
2023/05/24 01:50:32;;;;;;;5.60;2.40;;;14.50;98.00;;;;;;5031133;28;20462;-69
2023/05/24 01:53:05;;;;;;;3.77;2.40;;;14.40;98.00;;;;;;5030920;28;20573;-68
2023/05/24 01:55:34;;;;;;;4.70;2.70;;;14.40;98.00;;;;;;5030807;28;20493;-68
2023/05/24 01:58:06;;;;;;;9.43;2.80;;;14.30;98.00;;;;;;5030860;28;20461;-68
2023/05/24 02:00:35;;;;;;;3.57;2.30;;;14.20;98.00;;;;;;5030893;28;20497;-68
2023/05/24 02:03:03;;;;;;;3.93;2.10;;;14.20;98.00;;;;;;5031136;28;20989;-69
2023/05/24 02:05:32;;;;;;;4.50;2.30;;;14.10;98.00;;;;;;5030831;28;20541;-68
2023/05/24 02:07:59;;;;;;;7.80;2.90;;;14.10;98.00;;;;;;5013491;28;20527;-68
2023/05/24 02:10:26;;;;;;;3.90;2.57;;;13.90;98.00;;;;;;5030850;28;20464;-68
2023/05/24 02:12:53;;;;;;;2.27;1.90;;;14.10;98.00;;;;;;5031005;28;20945;-68
2023/05/24 02:15:20;;;;;;;4.83;2.37;;;14.30;98.00;;;;;;5030735;28;20524;-68
2023/05/24 02:17:49;;;;;;;3.87;2.60;;;14.40;98.00;;;;;;5014794;28;20463;-69
2023/05/24 02:20:21;;;;;;;8.33;2.60;;;14.20;98.00;;;;;;5034472;28;20843;-68
2023/05/24 02:22:48;;;;;;;5.20;2.60;;;14.30;98.00;;;;;;5034410;28;20478;-69
2023/05/24 02:25:15;;;;;;;3.43;2.33;;;14.50;98.00;;;;;;5034648;28;20505;-69
2023/05/24 02:27:45;;;;;;;5.03;2.50;;;14.60;98.00;;;;;;5034876;28;20450;-68
2023/05/24 02:30:13;;;;;;;8.70;2.87;;;14.40;98.00;;;;;;5034604;28;20448;-68
2023/05/24 02:32:40;;;;;;;4.80;2.90;;;14.50;98.00;;;;;;5034511;28;20957;-68
2023/05/24 02:35:09;;;;;;;4.83;2.50;;;14.70;98.00;;;;;;5016130;28;20463;-68
2023/05/24 02:37:36;;;;;;;6.50;2.90;;;14.70;98.00;;;;;;5034287;28;20454;-68
2023/05/24 02:40:04;;;;;;;5.33;2.90;;;14.80;98.00;;;;;;5016474;28;20508;-68
2023/05/24 02:42:33;;;;;;;4.73;2.60;;;14.80;98.00;;;;;;5034320;28;20862;-68
2023/05/24 02:45:00;;;;;;;4.40;2.67;;;14.70;98.00;;;;;;5034558;28;20462;-68
2023/05/24 02:47:27;;;;;;;4.53;2.57;;;14.80;98.00;;;;;;5034063;28;20450;-68
2023/05/24 02:49:54;;;;;;;3.70;2.40;;;14.70;98.00;;;;;;5034006;28;20496;-68
2023/05/24 02:52:23;;;;;;;7.13;2.87;;;14.70;98.00;;;;;;5034080;28;20460;-68
2023/05/24 02:54:50;;;;;;;4.70;2.60;;;14.60;98.00;;;;;;5034072;28;20467;-68
2023/05/24 02:57:17;;;;;;;5.70;2.77;;;14.70;98.00;;;;;;5033883;28;20543;-68
2023/05/24 02:59:45;;;;;;;4.67;2.67;;;14.70;98.00;;;;;;5033718;28;20516;-68
2023/05/24 03:02:13;;;;;;;6.17;2.50;;;14.60;98.00;;;;;;5016062;28;20462;-68
2023/05/24 03:04:40;;;;;;;4.73;2.30;;;14.60;98.00;;;;;;5033961;28;20450;-68
2023/05/24 03:07:07;;;;;;;4.10;2.50;;;14.50;98.00;;;;;;5033728;28;20464;-68
2023/05/24 03:09:36;;;;;;;4.83;2.70;;;14.60;98.00;;;;;;5033760;28;20471;-68
2023/05/24 03:12:03;;;;;;;6.00;2.93;;;14.50;98.00;;;;;;5033775;28;20459;-68
2023/05/24 03:14:30;;;;;;;5.10;2.77;;;14.50;98.00;;;;;;5033505;28;20458;-68
2023/05/24 03:16:57;;;;;;;4.37;2.80;;;14.40;98.00;;;;;;5033519;28;20868;-68
2023/05/24 03:19:24;;;;;;;4.73;2.47;;;14.40;98.00;;;;;;5033554;28;20469;-69
2023/05/24 03:21:51;;;;;;;3.80;2.33;;;14.30;98.00;;;;;;5033560;28;20485;-68
2023/05/24 03:24:19;;;;;;;6.40;3.00;;;14.40;98.00;;;;;;5033740;28;20457;-68
2023/05/24 03:26:48;;;;;;;5.73;2.90;;;14.40;98.00;;;;;;5033691;28;20454;-68
2023/05/24 03:29:15;;;;;;;5.63;2.50;;;14.40;98.00;;;;;;5032881;28;20462;-68
2023/05/24 03:31:42;;;;;;;7.30;3.50;;;14.40;98.00;;;;;;5033449;28;20467;-68
2023/05/24 03:34:10;;;;;;;4.00;2.70;;;14.40;98.00;;;;;;5033220;28;20452;-68
2023/05/24 03:36:37;;;;;;;4.70;2.80;;;14.30;98.00;;;;;;5033303;28;20611;-68
2023/05/24 03:39:06;;;;;;;6.10;3.40;;;14.30;98.00;;;;;;5032990;28;20460;-68
2023/05/24 03:41:33;;;;;;;4.30;2.87;;;14.40;98.00;;;;;;5033077;28;20488;-68
2023/05/24 03:44:02;;;;;;;3.90;2.43;;;14.30;98.00;;;;;;5032885;28;20460;-68
2023/05/24 03:46:29;;;;;;;4.90;2.63;;;14.30;98.00;;;;;;5033189;28;20465;-68
2023/05/24 03:48:56;;;;;;;9.40;2.63;;;14.20;98.00;;;;;;5033066;28;20523;-68
2023/05/24 03:51:28;;;;;;;5.20;3.10;;;14.10;98.00;;;;;;5032969;28;20467;-68
2023/05/24 03:53:55;;;;;;;13.63;3.33;;;14.00;98.00;;;;;;5032796;28;20556;-68
2023/05/24 03:56:24;;;;;;;4.47;2.60;;;14.10;98.00;;;;;;5032554;28;20494;-68
2023/05/24 03:58:51;;;;;;;7.37;3.23;;;14.10;98.00;;;;;;5032921;28;20465;-68
2023/05/24 04:01:20;;;;;;;4.80;2.60;;;14.00;98.00;;;;;;5032574;28;21080;-68
2023/05/24 04:03:47;;;;;;;8.93;3.10;;;13.80;98.00;;;;;;5032782;28;20807;-68
2023/05/24 04:06:14;;;;;;;9.13;3.43;;;13.90;98.00;;;;;;5014766;28;20461;-68
2023/05/24 04:08:42;;;;;;;3.60;2.50;;;13.90;98.00;;;;;;5015062;28;20496;-68
2023/05/24 04:11:10;;;;;;;8.63;3.30;;;14.00;98.00;;;;;;5014920;28;20472;-68
2023/05/24 04:13:38;;;;;;;4.43;2.77;;;14.10;98.00;;;;;;5032885;28;20956;-68
2023/05/24 04:16:08;;;;;;;10.50;3.13;;;14.00;98.00;;;;;;5032426;28;20471;-68
2023/05/24 04:18:39;;;;;;;5.83;2.73;;;13.90;98.00;;;;;;5033210;28;20454;-68
2023/05/24 04:21:07;;;;;;;5.00;2.77;;;13.90;98.00;;;;;;5032429;28;20494;-68
2023/05/24 04:23:34;;;;;;;5.53;2.77;;;13.90;98.00;;;;;;5014890;28;20448;-68
2023/05/24 04:26:01;;;;;;;4.63;2.47;;;14.00;98.00;;;;;;5032300;28;20466;-68
2023/05/24 04:28:28;;;;;;;4.00;2.50;;;14.00;98.00;;;;;;5032236;28;20453;-68
2023/05/24 04:30:56;;;;;;;5.87;3.20;;;14.00;98.00;;;;;;5032228;28;20546;-68
2023/05/24 04:33:23;;;;;;;3.90;2.70;;;13.90;98.00;;;;;;5032206;28;20988;-68
2023/05/24 04:35:52;;;;;;;6.50;2.70;;;13.90;98.00;;;;;;5032091;28;20465;-68
2023/05/24 04:38:19;;;;;;;3.47;2.20;;;13.90;98.00;;;;;;5031966;28;20516;-69
2023/05/24 04:40:46;;;;;;;8.83;3.77;;;13.90;98.00;;;;;;5031283;28;20486;-68
2023/05/24 04:43:14;;;;;;;7.30;2.60;;;14.00;98.00;;;;;;5031913;28;20885;-66
2023/05/24 04:45:42;;;;;;;4.07;2.60;;;14.10;98.00;;;;;;5031787;28;20470;-68
2023/05/24 04:48:10;;;;;;;4.23;2.57;;;13.90;98.00;;;;;;5014244;28;20796;-68
2023/05/24 04:50:37;;;;;;;5.30;2.93;;;13.80;98.00;;;;;;5031773;28;21052;-68
2023/05/24 04:53:06;;;;;;;6.33;2.93;;;13.70;98.00;;;;;;5031768;28;20539;-68
2023/05/24 04:55:33;;;;;;;6.43;2.80;;;13.90;98.00;;;;;;5031611;28;20469;-68
2023/05/24 04:58:00;;;;;;;5.60;2.50;;;14.00;98.00;;;;;;5031706;28;20467;-68
2023/05/24 05:00:27;;;;;;;5.53;2.70;;;14.00;98.00;;;;;;5031436;28;20498;-67
2023/05/24 05:02:54;;;;;;;5.23;2.47;;;14.10;98.00;;;;;;5031664;28;20955;-68
2023/05/24 05:05:22;;;;;;;6.03;2.73;;;14.10;98.00;;;;;;5031701;28;20460;-68
2023/05/24 05:07:49;;;;;;;4.80;3.13;;;14.10;98.00;;;;;;5019639;28;20453;-68
2023/05/24 05:10:19;;;;;;;5.10;3.10;;;13.90;98.00;;;;;;5034190;28;20452;-68
2023/05/24 05:12:46;;;;;;;4.80;2.60;;;14.00;98.00;;;;;;5031712;28;20466;-68
2023/05/24 05:15:14;;;;;;;6.83;3.00;;;14.00;98.00;;;;;;5031297;28;20471;-68
2023/05/24 05:17:41;;;;;;;4.23;2.93;;;13.90;98.00;;;;;;5031406;28;20476;-68
2023/05/24 05:20:09;;;;;;;12.70;3.00;;;13.80;98.00;;;;;;5031447;28;20461;-68
2023/05/24 05:22:36;;;;;;;4.00;2.60;;;13.70;98.00;;;;;;5031321;28;20482;-68
2023/05/24 05:25:04;;;;;;;5.93;2.43;;;13.80;98.00;;;;;;4997531;28;20469;-68
2023/05/24 05:27:32;;;;;;;4.57;2.70;;;13.90;98.00;;;;;;5031321;28;20957;-68
2023/05/24 05:29:59;;;;;;;4.53;2.50;;;14.00;98.00;;;;;;5031071;28;20517;-68
2023/05/24 05:32:26;;;;;;;6.87;2.97;;;14.10;98.00;;;;;;5031169;28;20982;-68
2023/05/24 05:34:53;;;;;;;3.60;2.47;;;14.10;98.00;;;;;;5022042;28;20462;-68
2023/05/24 05:37:22;;;;;;;3.43;2.37;;;14.20;98.00;;;;;;5050963;28;20461;-68
2023/05/24 05:39:49;;;;;;;4.33;2.20;;;14.30;98.00;;;;;;5033444;28;20457;-68
2023/05/24 05:42:16;;;;;;;16.60;3.10;;;14.20;98.00;;;;;;5050745;28;20489;-68
2023/05/24 05:44:45;;;;;;;5.70;3.10;;;14.30;98.00;;;;;;5050825;28;20457;-68
2023/05/24 05:47:12;;;;;;;3.93;2.50;;;14.00;98.00;;;;;;5050659;28;20464;-68
2023/05/24 05:49:39;;;;;;;6.13;3.07;;;14.00;98.00;;;;;;5050910;28;20449;-68
2023/05/24 05:52:06;;;;;;;6.40;2.83;;;13.90;98.00;;;;;;5052704;28;20982;-68
2023/05/24 05:54:34;;;;;;;5.40;3.00;;;14.00;98.00;;;;;;5055186;28;20464;-68
2023/05/24 05:57:01;;;;;;;10.20;4.10;;;14.00;98.00;;;;;;5037700;28;20467;-68
2023/05/24 05:59:30;;;;;;;8.13;3.43;;;14.00;98.00;;;;;;5054824;28;20460;-68
2023/05/24 06:01:58;;;;;;;6.10;2.40;;;14.10;98.00;;;;;;5054939;28;20484;-65
2023/05/24 06:04:25;;;;;;;4.60;2.60;;;14.00;98.00;;;;;;5054858;28;20453;-66
2023/05/24 06:06:52;;;;;;;5.00;2.93;;;14.00;98.00;;;;;;5055342;28;20471;-65
2023/05/24 06:09:20;;;;;;;4.87;2.67;;;13.90;98.00;;;;;;5055085;28;20998;-65
2023/05/24 06:11:47;;;;;;;7.30;2.90;;;13.90;98.00;;;;;;5055946;28;20459;-65
2023/05/24 06:14:18;;;;;;;5.33;2.63;;;14.10;98.00;;;;;;5055088;28;20467;-66
2023/05/24 06:16:46;;;;;;;8.00;3.03;;;14.10;98.00;;;;;;5054854;28;20462;-65
2023/05/24 06:19:15;;;;;;;5.07;2.80;;;13.90;98.00;;;;;;5055574;28;20488;-65
2023/05/24 06:21:46;;;;;;;4.63;2.67;;;14.10;98.00;;;;;;5055283;28;20485;-66
2023/05/24 06:24:13;;;;;;;4.57;2.70;;;14.10;98.00;;;;;;5021771;28;20464;-68
2023/05/24 06:26:41;;;;;;;8.50;3.03;;;14.10;98.00;;;;;;5054419;28;20816;-66
2023/05/24 06:29:08;;;;;;;5.93;2.77;;;14.20;98.00;;;;;;5054489;28;20549;-66
2023/05/24 06:31:35;;;;;;;3.87;2.33;;;14.10;98.00;;;;;;5054330;28;20940;-66
2023/05/24 06:34:02;;;;;;;5.10;2.80;;;14.30;98.00;;;;;;5046096;28;20468;-66
2023/05/24 06:36:32;;;;;;;4.80;2.80;;;14.40;98.00;;;;;;5034350;28;20571;-66
2023/05/24 06:39:00;;;;;;;8.60;2.97;;;14.50;98.00;;;;;;5034085;28;20461;-66
2023/05/24 06:41:27;;;;;;;10.40;3.07;;;14.40;98.00;;;;;;5016514;28;20540;-66
2023/05/24 06:43:54;;;;;;;3.90;2.57;;;14.40;98.00;;;;;;5034838;28;20453;-66
2023/05/24 06:46:21;;;;;;;6.13;3.00;;;14.30;98.00;;;;;;5034016;28;20872;-66
2023/05/24 06:48:48;;;;;;;7.40;3.07;;;14.30;98.00;;;;;;5034246;28;20518;-66
2023/05/24 06:51:16;;;;;;;4.53;3.33;;;14.20;98.00;;;;;;5034255;28;20993;-66
2023/05/24 06:53:45;;;;;;;6.67;3.00;;;14.50;98.00;;;;;;5033979;28;20575;-66
2023/05/24 06:56:12;;;;;;;5.80;2.57;;;14.70;98.00;;;;;;5033913;28;20515;-66
2023/05/24 06:58:39;;;;;;;5.37;2.70;;;14.90;98.00;;;;;;5034004;28;20453;-66
2023/05/24 07:01:07;;;;;;;7.23;2.77;;;14.90;98.00;;;;;;5034083;28;20883;-66
2023/05/24 07:03:34;;;;;;;6.60;3.20;;;15.00;98.00;;;;;;5033324;28;20462;-66
2023/05/24 07:06:02;;;;;;;5.20;2.40;;;14.90;98.00;;;;;;5034068;28;20465;-66
2023/05/24 07:08:29;;;;;;;9.80;3.10;;;14.90;98.00;;;;;;5033911;28;20454;-66
2023/05/24 07:10:58;;;;;;;5.40;2.87;;;14.80;98.00;;;;;;5033778;28;20463;-66
2023/05/24 07:13:26;;;;;;;10.50;3.73;;;14.90;98.00;;;;;;5033741;28;20462;-66
2023/05/24 07:15:53;;;;;;;6.20;2.83;;;14.90;98.00;;;;;;5016212;28;20547;-66
2023/05/24 07:18:20;;;;;;;5.47;3.30;;;14.80;98.00;;;;;;5033467;28;20456;-66
2023/05/24 07:20:47;;;;;;;5.53;2.70;;;14.70;98.00;;;;;;5016153;28;20461;-66
2023/05/24 07:23:15;;;;;;;8.73;2.80;;;14.70;98.00;;;;;;5033428;28;20482;-66
2023/05/24 07:25:42;;;;;;;5.67;3.07;;;14.80;98.00;;;;;;5033519;28;20508;-66
2023/05/24 07:28:10;;;;;;;4.90;3.00;;;14.90;98.00;;;;;;5033477;28;20462;-66
2023/05/24 07:30:38;;;;;;;7.40;3.10;;;14.90;98.00;;;;;;5033479;28;20469;-66
2023/05/24 07:33:05;;;;;;;5.20;2.70;;;14.90;98.00;;;;;;5033294;28;20461;-66
2023/05/24 07:35:32;;;;;;;5.80;3.00;;;15.00;98.00;;;;;;5033182;28;20454;-66
2023/05/24 07:37:59;;;;;;;3.83;2.70;;;15.00;98.00;;;;;;4999363;28;20466;-66
2023/05/24 07:40:26;;;;;;;6.77;2.87;;;15.10;98.00;;;;;;5033367;28;20467;-66
2023/05/24 07:42:53;;;;;;;7.63;3.10;;;15.10;98.00;;;;;;5015584;28;20560;-66
2023/05/24 07:45:22;;;;;;;10.13;3.00;;;15.10;98.00;;;;;;5015554;28;20816;-66
2023/05/24 07:47:49;;;;;;;4.77;2.93;;;15.10;98.00;;;;;;5033354;28;20517;-66
2023/05/24 07:50:17;;;;;;;5.40;2.73;;;15.20;98.00;;;;;;5032956;28;20553;-66
2023/05/24 07:52:44;;;;;;;5.30;2.53;;;15.20;98.00;;;;;;5032988;28;20520;-66
2023/05/24 07:55:11;;;;;;;4.33;2.50;;;15.20;98.00;;;;;;5015485;28;20458;-66
2023/05/24 07:57:38;;;;;;;5.70;2.77;;;15.20;98.00;;;;;;5033221;28;20492;-66
2023/05/24 08:00:13;;;;;;;5.20;3.00;;;15.30;98.00;;;;;;5032810;28;20460;-66
2023/05/24 08:02:45;;;;;;;4.73;2.87;;;15.30;98.00;;;;;;5032877;28;20575;-66
2023/05/24 08:05:12;;;;;;;6.00;2.87;;;15.30;98.00;;;;;;5015013;28;20495;-66
2023/05/24 08:07:40;;;;;;;11.67;3.30;;;15.20;98.00;;;;;;5032710;28;20860;-66
2023/05/24 08:10:09;;;;;;;6.50;2.57;;;15.20;98.00;;;;;;5032521;28;21036;-66
2023/05/24 08:12:36;;;;;;;5.60;2.53;;;15.20;98.00;;;;;;5032406;28;20455;-66
2023/05/24 08:15:04;;;;;;;4.97;2.57;;;15.30;98.00;;;;;;5031149;28;20457;-66
2023/05/24 08:17:31;;;;;;;5.40;2.93;;;15.20;98.00;;;;;;5032415;28;20944;-66
2023/05/24 08:19:59;;;;;;;7.80;2.87;;;15.20;98.00;;;;;;5032378;28;20512;-66
2023/05/24 08:22:26;;;;;;;4.20;2.70;;;15.10;98.00;;;;;;5032364;28;20581;-66
2023/05/24 08:24:54;;;;;;;10.57;3.60;;;15.00;98.00;;;;;;5032542;28;20461;-66
2023/05/24 08:27:21;;;;;;;4.73;2.50;;;15.00;98.00;;;;;;5013559;28;20472;-66
2023/05/24 08:29:48;;;;;;;4.57;2.60;;;15.10;98.00;;;;;;5032118;28;20467;-66
2023/05/24 08:32:15;;;;;;;8.07;3.17;;;15.20;98.00;;;;;;5032351;28;20457;-67
2023/05/24 08:34:43;;;;;;;5.90;2.57;;;15.30;98.00;;;;;;5032098;28;20465;-66
2023/05/24 08:37:14;;;;;;;5.27;2.67;;;15.30;98.00;;;;;;5031994;28;20454;-66
2023/05/24 08:39:41;;;;;;;5.40;2.97;;;15.20;98.00;;;;;;5031785;28;20465;-66
2023/05/24 08:42:09;;;;;;;6.63;2.73;;;15.30;98.00;;;;;;5032069;28;21001;-66
2023/05/24 08:44:40;;;;;;;5.70;3.13;;;15.20;98.00;;;;;;5032148;28;20464;-66
2023/05/24 08:47:09;;;;;;;6.97;2.70;;;15.40;98.00;;;;;;5031016;28;20469;-66
2023/05/24 08:49:37;;;;;;;9.40;2.63;;;15.50;98.00;;;;;;5031718;28;20485;-67
2023/05/24 08:52:07;;;;;;;9.60;2.90;;;15.70;98.00;;;;;;5031694;28;20508;-67
2023/05/24 08:54:36;;;;;;;4.90;2.70;;;15.60;98.00;;;;;;5032007;28;20951;-67
2023/05/24 08:57:03;;;;;;;7.33;3.07;;;15.70;98.00;;;;;;5031598;28;20874;-67
2023/05/24 08:59:31;;;;;;;11.43;3.13;;;15.70;98.00;;;;;;5031326;28;20482;-66
2023/05/24 09:01:59;;;;;;;5.90;3.23;;;15.70;98.00;;;;;;5031304;28;20486;-65
2023/05/24 09:04:27;;;;;;;6.60;2.97;;;15.50;98.00;;;;;;5014246;28;20454;-67
2023/05/24 09:06:56;;;;;;;4.83;2.77;;;15.60;98.00;;;;;;5031208;28;20443;-66
2023/05/24 09:09:27;;;;;;;8.93;3.87;;;15.60;98.00;;;;;;5031627;28;20461;-66
2023/05/24 09:11:59;;;;;;;5.40;2.60;;;15.60;98.00;;;;;;5031238;28;20457;-67
2023/05/24 09:14:26;;;;;;;9.03;3.33;;;15.60;98.00;;;;;;5031398;28;20457;-66
2023/05/24 09:16:54;;;;;;;4.70;2.70;;;15.60;98.00;;;;;;5031158;28;20466;-67
2023/05/24 09:19:21;;;;;;;5.37;3.00;;;15.60;98.00;;;;;;5031193;28;20477;-67
2023/05/24 09:21:52;;;;;;;7.70;3.10;;;15.60;98.00;;;;;;5031165;28;20975;-66
2023/05/24 09:24:19;;;;;;;4.83;2.60;;;15.60;98.00;;;;;;5031076;28;20465;-65
2023/05/24 09:26:49;;;;;;;6.80;3.30;;;15.60;98.00;;;;;;5030723;28;20504;-67
2023/05/24 09:29:23;;;;;;;8.27;3.87;;;15.50;98.00;;;;;;5031048;28;20912;-66
2023/05/24 09:31:52;;;;;;;11.17;3.00;;;15.40;98.00;;;;;;5030972;28;20549;-67
2023/05/24 09:34:20;;;;;;;5.07;2.70;;;15.30;98.00;;;;;;5030982;28;20478;-66
2023/05/24 09:36:48;;;;;;;8.17;3.07;;;15.40;98.00;;;;;;5031100;28;20789;-67
2023/05/24 09:39:19;;;;;;;3.70;2.53;;;15.60;98.00;;;;;;5031273;28;20454;-66
2023/05/24 09:41:56;;;;;;;15.93;4.00;;;15.60;98.00;;;;;;5031036;28;20897;-66
2023/05/24 09:44:26;;;;;;;11.20;3.60;;;15.60;98.00;;;;;;5030813;28;20523;-66
2023/05/24 09:46:54;;;;;;;14.50;5.17;;;15.60;98.00;;;;;;5030769;28;20457;-67
2023/05/24 09:49:21;;;;;;;6.63;2.93;;;15.70;98.00;;;;;;5031210;28;20813;-67
2023/05/24 09:51:49;;;;;;;5.77;2.90;;;15.80;98.00;;;;;;5014323;28;20458;-67
2023/05/24 09:54:16;;;;;;;12.93;4.00;;;15.80;98.00;;;;;;5031407;28;20470;-67
2023/05/24 09:56:46;;;;;;;7.57;3.20;;;15.70;98.00;;;;;;5031493;28;20545;-67
2023/05/24 09:59:14;;;;;;;8.03;3.07;;;15.60;98.00;;;;;;5014020;28;20457;-67
2023/05/24 10:01:43;;;;;;;5.10;3.20;;;15.70;98.00;;;;;;5048021;28;21010;-66
2023/05/24 10:04:10;;;;;;;5.40;3.00;;;15.70;98.00;;;;;;5051424;28;20890;-66
2023/05/24 10:06:38;;;;;;;6.73;3.30;;;15.70;98.00;;;;;;5051441;28;20537;-66
2023/05/24 10:09:06;;;;;;;5.10;2.80;;;15.60;98.00;;;;;;5051365;28;20457;-66
2023/05/24 10:11:35;;;;;;;6.07;2.90;;;15.50;98.00;;;;;;5051348;28;20469;-67
2023/05/24 10:14:05;;;;;;;9.13;3.30;;;15.60;98.00;;;;;;5051194;28;20456;-67
2023/05/24 10:16:32;;;;;;;8.20;2.83;;;15.70;98.00;;;;;;5051175;28;20450;-67
2023/05/24 10:19:01;;;;;;;7.43;3.97;;;15.80;98.00;;;;;;5033749;28;20788;-67
2023/05/24 10:21:31;;;;;;;11.63;3.70;;;15.80;98.00;;;;;;5051258;28;20473;-66
2023/05/24 10:24:02;;;;;;;5.67;2.90;;;15.80;98.00;;;;;;5051161;28;20508;-67
2023/05/24 10:26:32;;;;;;;8.03;3.50;;;15.70;98.00;;;;;;5051461;28;20944;-67
2023/05/24 10:29:06;;;;;;;8.50;3.00;;;15.60;98.00;;;;;;5034155;28;20568;-67
2023/05/24 10:31:36;;;;;;;6.90;3.37;;;15.60;98.00;;;;;;5051578;28;20455;-67
2023/05/24 10:34:06;;;;;;;5.23;2.93;;;15.60;98.00;;;;;;5051443;28;20464;-66
2023/05/24 10:36:34;;;;;;;6.40;3.13;;;15.60;98.00;;;;;;5051520;28;20546;-67
2023/05/24 10:39:02;;;;;;;10.03;3.47;;;15.60;98.00;;;;;;5053090;28;20965;-67
2023/05/24 10:41:29;;;;;;;7.00;3.30;;;15.50;98.00;;;;;;5055040;28;20483;-67
2023/05/24 10:43:57;;;;;;;8.67;3.13;;;15.50;98.00;;;;;;5055154;28;20488;-67
2023/05/24 10:46:24;;;;;;;6.30;3.10;;;15.30;98.00;;;;;;5054931;28;20460;-67
2023/05/24 10:49:01;;;;;;;13.17;2.90;;;15.30;98.00;;;;;;5054668;28;20803;-67
2023/05/24 10:51:37;;;;;;;5.80;3.07;;;15.30;98.00;;;;;;5054780;28;20457;-67
2023/05/24 10:54:25;;;;;;;7.33;3.10;;;15.30;98.00;;;;;;5054412;28;20501;-67
2023/05/24 10:56:53;;;;;;;7.73;3.40;;;15.30;98.00;;;;;;5054489;28;20453;-67
2023/05/24 10:59:40;;;;;;;5.73;3.33;;;15.30;98.00;;;;;;5054332;28;20449;-67
2023/05/24 11:02:12;;;;;;;5.97;2.90;;;15.40;98.00;;;;;;5036773;28;20457;-67
2023/05/24 11:04:42;;;;;;;4.77;2.80;;;15.30;98.00;;;;;;5054405;28;21142;-67
2023/05/24 11:07:12;;;;;;;11.43;3.10;;;15.40;98.00;;;;;;5054433;28;20503;-67
2023/05/24 11:09:45;;;;;;;8.80;2.83;;;15.50;98.00;;;;;;5036663;28;20459;-67
2023/05/24 11:12:15;;;;;;;6.47;3.20;;;15.60;98.00;;;;;;5054187;28;20939;-67
2023/05/24 11:14:48;;;;;;;5.03;3.03;;;15.60;98.00;;;;;;5053681;28;20848;-67
2023/05/24 11:17:16;;;;;;;6.40;2.93;;;15.60;98.00;;;;;;5034299;28;20560;-67
2023/05/24 11:19:47;;;;;;;5.13;3.03;;;15.60;98.00;;;;;;5027136;28;20659;-67
2023/05/24 11:22:16;;;;;;;6.53;3.10;;;15.50;98.00;;;;;;5054180;28;20477;-66
2023/05/24 11:24:45;;;;;;;5.73;3.00;;;15.60;98.00;;;;;;5054000;28;20540;-66
2023/05/24 11:27:13;;;;;;;6.70;3.30;;;15.70;98.00;;;;;;5050160;28;20477;-66
2023/05/24 11:29:42;;;;;;;8.93;2.50;;;15.70;98.00;;;;;;5034274;28;20462;-66
2023/05/24 11:32:09;;;;;;;5.23;2.70;;;15.80;98.00;;;;;;5034112;28;20520;-65
2023/05/24 11:34:38;;;;;;;3.53;2.80;;;15.90;98.00;;;;;;5034280;28;20458;-65
2023/05/24 11:37:06;;;;;;;6.90;3.60;;;16.00;98.00;;;;;;5034005;28;20508;-65
2023/05/24 11:39:36;;;;;;;7.27;3.37;;;16.10;98.00;;;;;;5033739;28;20459;-65
2023/05/24 11:42:06;;;;;;;7.37;3.27;;;16.00;98.00;;;;;;5033664;28;20461;-65
2023/05/24 11:44:36;;;;;;;6.87;3.13;;;16.30;98.00;;;;;;5016357;28;20514;-65
2023/05/24 11:47:07;;;;;;;7.40;3.40;;;16.50;98.00;;;;;;5033661;28;20797;-65
2023/05/24 11:49:35;;;;;;;5.47;3.17;;;16.70;98.00;;;;;;5033381;28;20495;-65
2023/05/24 11:52:02;;;;;;;10.43;3.97;;;16.90;98.00;;;;;;5032169;28;20466;-65
2023/05/24 11:54:31;;;;;;;6.70;3.70;;;17.00;98.00;;;;;;5033528;28;20463;-65
2023/05/24 11:57:00;;;;;;;6.37;2.73;;;17.00;98.00;;;;;;5033204;28;20933;-65
2023/05/24 11:59:28;;;;;;;8.37;3.33;;;17.00;98.00;;;;;;5033321;28;20503;-66
2023/05/24 12:02:00;;;;;;;5.53;2.90;;;16.90;98.00;;;;;;5033180;28;20455;-66
2023/05/24 12:04:27;;;;;;;5.20;2.93;;;16.80;98.00;;;;;;5033186;28;21000;-65
2023/05/24 12:06:55;;;;;;;5.27;2.87;;;16.90;98.00;;;;;;5033120;28;20466;-65
2023/05/24 12:09:22;;;;;;;6.10;3.00;;;17.10;98.00;;;;;;5033336;28;20557;-66
2023/05/24 12:11:52;;;;;;;9.67;3.57;;;17.20;98.00;;;;;;5015600;28;20458;-65
2023/05/24 12:14:25;;;;;;;6.37;3.40;;;17.90;98.00;;;;;;5016160;28;20512;-66
2023/05/24 12:16:56;;;;;;;6.87;3.23;;;18.30;98.00;;;;;;5033457;28;20459;-66
2023/05/24 12:19:24;;;;;;;8.97;2.93;;;18.90;97.70;;;;;;5032892;28;20804;-66
2023/05/24 12:21:56;;;;;;;6.50;3.33;;;19.40;96.10;;;;;;5033148;28;20486;-66
2023/05/24 12:24:25;;;;;;;8.97;3.30;;;19.60;95.60;;;;;;5033037;28;20552;-66
2023/05/24 12:26:52;;;;;;;9.30;3.50;;;19.50;95.70;;;;;;5015334;28;20459;-66
2023/05/24 12:29:21;;;;;;;5.17;2.97;;;19.30;94.30;;;;;;5032988;28;20485;-66
2023/05/24 12:31:49;;;;;;;7.47;3.20;;;19.80;94.40;;;;;;5033323;28;20481;-66
2023/05/24 12:34:17;;;;;;;5.43;3.47;;;20.30;92.90;;;;;;5033256;28;20457;-66
2023/05/24 12:36:45;;;;;;;7.07;3.07;;;20.40;91.60;;;;;;5032887;28;20459;-66
2023/05/24 12:39:19;;;;;;;5.77;3.00;;;20.20;89.10;;;;;;5032695;28;20461;-66
2023/05/24 12:41:50;;;;;;;4.80;3.10;;;19.90;89.00;;;;;;5032608;28;20458;-66
2023/05/24 12:44:18;;;;;;;5.07;2.97;;;19.40;88.50;;;;;;5032784;28;21031;-66
2023/05/24 12:46:47;;;;;;;4.87;2.90;;;19.10;91.40;;;;;;5032628;28;20490;-66
2023/05/24 12:49:14;;;;;;;6.60;3.00;;;19.00;91.80;;;;;;5031298;28;20872;-66
2023/05/24 12:51:43;;;;;;;8.40;3.20;;;19.20;92.50;;;;;;5032389;28;20561;-66
2023/05/24 12:54:10;;;;;;;5.70;2.60;;;19.80;87.90;;;;;;5014722;28;20471;-66